Montpelier, Ohio
Current Conditions -  °F | °C
As of 4:53 PM on Wednesday 28 Jan 2015 (Local Time) from KDFI Reporting Station
Clear Clear  
Wind Chill: 18°   Ceiling: Unl
Heat Index: 26°   Visibility: 10mi
Dew Point: 13°   Wind: 8mph
Humidity: 58%   Direction: 170°S
Pressure: 30.26"   Gusts: NA
Location:  41.58°N, 84.61°W
Report Text: KDFI 282153Z AUTO 17007KT 10SM CLR M03/M11 A3026 RMK AO2 SLP260 T10331106
Loading
Personal Weather Stations






























Interactive Weather Map New forecast layout! Learn more

10-Day Weather Forecast

Advertisements
Track Severe Weather on mobile